sensor_id;sensor_type;location;lat;lon;timestamp;pressure;altitude;pressure_sealevel;temperature;humidity
70506;BME280;58032;49.820;6.274;2023-06-26T00:01:31;97532.22;;;16.41;100.00
70506;BME280;58032;49.820;6.274;2023-06-26T00:03:59;97530.88;;;16.36;100.00
70506;BME280;58032;49.820;6.274;2023-06-26T00:06:26;97536.97;;;16.23;100.00
70506;BME280;58032;49.820;6.274;2023-06-26T00:08:55;97531.84;;;16.27;100.00
70506;BME280;58032;49.820;6.274;2023-06-26T00:11:22;97539.19;;;16.40;100.00
70506;BME280;58032;49.820;6.274;2023-06-26T00:13:49;97537.19;;;16.46;100.00
70506;BME280;58032;49.820;6.274;2023-06-26T00:16:16;97536.09;;;16.38;100.00
70506;BME280;58032;49.820;6.274;2023-06-26T00:18:43;97538.59;;;16.09;100.00
70506;BME280;58032;49.820;6.274;2023-06-26T00:21:10;97542.97;;;15.69;100.00
70506;BME280;58032;49.820;6.274;2023-06-26T00:23:37;97542.25;;;15.54;100.00
70506;BME280;58032;49.820;6.274;2023-06-26T00:26:05;97543.53;;;15.52;100.00
70506;BME280;58032;49.820;6.274;2023-06-26T00:28:32;97539.22;;;15.57;100.00
70506;BME280;58032;49.820;6.274;2023-06-26T00:30:59;97540.13;;;15.69;100.00
70506;BME280;58032;49.820;6.274;2023-06-26T00:33:28;97540.56;;;15.82;100.00
70506;BME280;58032;49.820;6.274;2023-06-26T00:35:56;97533.50;;;15.93;100.00
70506;BME280;58032;49.820;6.274;2023-06-26T00:38:23;97535.41;;;16.02;100.00
70506;BME280;58032;49.820;6.274;2023-06-26T00:40:50;97538.09;;;16.11;100.00
70506;BME280;58032;49.820;6.274;2023-06-26T00:43:17;97529.88;;;16.13;100.00
70506;BME280;58032;49.820;6.274;2023-06-26T00:45:44;97530.84;;;16.10;100.00
70506;BME280;58032;49.820;6.274;2023-06-26T00:48:12;97527.75;;;15.87;100.00
70506;BME280;58032;49.820;6.274;2023-06-26T00:50:41;97530.22;;;15.59;100.00
70506;BME280;58032;49.820;6.274;2023-06-26T00:53:09;97524.22;;;15.36;100.00
70506;BME280;58032;49.820;6.274;2023-06-26T00:55:36;97531.19;;;15.20;100.00
70506;BME280;58032;49.820;6.274;2023-06-26T00:58:03;97526.59;;;15.23;100.00
70506;BME280;58032;49.820;6.274;2023-06-26T01:00:30;97526.28;;;15.35;100.00
70506;BME280;58032;49.820;6.274;2023-06-26T01:02:57;97530.75;;;15.42;100.00
70506;BME280;58032;49.820;6.274;2023-06-26T01:05:27;97520.91;;;15.38;100.00
70506;BME280;58032;49.820;6.274;2023-06-26T01:07:55;97526.81;;;15.19;100.00
70506;BME280;58032;49.820;6.274;2023-06-26T01:10:24;97539.06;;;15.10;100.00
70506;BME280;58032;49.820;6.274;2023-06-26T01:12:54;97540.31;;;15.09;100.00
70506;BME280;58032;49.820;6.274;2023-06-26T01:15:21;97540.13;;;15.13;100.00
70506;BME280;58032;49.820;6.274;2023-06-26T01:17:51;97531.63;;;15.13;100.00
70506;BME280;58032;49.820;6.274;2023-06-26T01:20:19;97533.94;;;15.29;100.00
70506;BME280;58032;49.820;6.274;2023-06-26T01:23:17;97527.91;;;15.42;100.00
70506;BME280;58032;49.820;6.274;2023-06-26T01:28:11;97525.31;;;15.59;100.00
70506;BME280;58032;49.820;6.274;2023-06-26T01:30:43;97521.19;;;15.60;100.00
70506;BME280;58032;49.820;6.274;2023-06-26T01:33:12;97522.13;;;15.51;100.00
70506;BME280;58032;49.820;6.274;2023-06-26T01:35:39;97516.94;;;15.50;100.00
70506;BME280;58032;49.820;6.274;2023-06-26T01:40:40;97511.25;;;15.50;100.00
70506;BME280;58032;49.820;6.274;2023-06-26T01:43:15;97513.25;;;15.44;100.00
70506;BME280;58032;49.820;6.274;2023-06-26T01:45:44;97525.22;;;15.18;100.00
70506;BME280;58032;49.820;6.274;2023-06-26T01:48:12;97519.63;;;14.88;100.00
70506;BME280;58032;49.820;6.274;2023-06-26T01:50:41;97516.03;;;14.72;100.00
70506;BME280;58032;49.820;6.274;2023-06-26T01:53:14;97525.22;;;14.82;100.00
70506;BME280;58032;49.820;6.274;2023-06-26T01:55:47;97519.25;;;14.80;100.00
70506;BME280;58032;49.820;6.274;2023-06-26T01:58:22;97524.31;;;14.91;100.00
70506;BME280;58032;49.820;6.274;2023-06-26T02:00:50;97521.38;;;15.00;100.00
70506;BME280;58032;49.820;6.274;2023-06-26T02:03:17;97523.91;;;14.98;100.00
70506;BME280;58032;49.820;6.274;2023-06-26T02:05:44;97520.47;;;14.94;100.00
70506;BME280;58032;49.820;6.274;2023-06-26T02:08:14;97521.09;;;14.98;100.00
70506;BME280;58032;49.820;6.274;2023-06-26T02:10:47;97523.53;;;14.91;100.00
70506;BME280;58032;49.820;6.274;2023-06-26T02:13:15;97522.19;;;14.86;100.00
70506;BME280;58032;49.820;6.274;2023-06-26T02:15:42;97526.09;;;14.74;100.00
70506;BME280;58032;49.820;6.274;2023-06-26T02:18:09;97529.63;;;14.68;100.00
70506;BME280;58032;49.820;6.274;2023-06-26T02:20:36;97525.97;;;14.68;100.00
70506;BME280;58032;49.820;6.274;2023-06-26T02:23:03;97525.97;;;14.68;100.00
70506;BME280;58032;49.820;6.274;2023-06-26T02:25:30;97534.84;;;14.61;100.00
70506;BME280;58032;49.820;6.274;2023-06-26T02:27:57;97533.78;;;14.58;100.00
70506;BME280;58032;49.820;6.274;2023-06-26T02:30:24;97535.84;;;14.57;100.00
70506;BME280;58032;49.820;6.274;2023-06-26T02:32:51;97547.47;;;14.45;100.00
70506;BME280;58032;49.820;6.274;2023-06-26T02:35:18;97548.91;;;14.25;100.00
70506;BME280;58032;49.820;6.274;2023-06-26T02:37:45;97545.13;;;14.43;100.00
70506;BME280;58032;49.820;6.274;2023-06-26T02:40:12;97544.88;;;14.86;100.00
70506;BME280;58032;49.820;6.274;2023-06-26T02:42:41;97539.22;;;15.22;100.00
70506;BME280;58032;49.820;6.274;2023-06-26T02:45:08;97540.63;;;15.47;100.00
70506;BME280;58032;49.820;6.274;2023-06-26T02:47:35;97539.22;;;15.57;100.00
70506;BME280;58032;49.820;6.274;2023-06-26T02:50:07;97534.59;;;15.60;100.00
70506;BME280;58032;49.820;6.274;2023-06-26T02:52:54;97539.34;;;15.48;100.00
70506;BME280;58032;49.820;6.274;2023-06-26T02:55:21;97538.28;;;15.45;100.00
70506;BME280;58032;49.820;6.274;2023-06-26T02:57:49;97553.53;;;15.48;100.00
70506;BME280;58032;49.820;6.274;2023-06-26T03:00:16;97543.47;;;15.47;100.00
70506;BME280;58032;49.820;6.274;2023-06-26T03:02:47;97548.59;;;15.28;100.00
70506;BME280;58032;49.820;6.274;2023-06-26T03:05:17;97545.97;;;15.24;100.00
70506;BME280;58032;49.820;6.274;2023-06-26T03:07:45;97548.31;;;15.26;100.00
70506;BME280;58032;49.820;6.274;2023-06-26T03:10:11;97550.66;;;15.27;100.00
70506;BME280;58032;49.820;6.274;2023-06-26T03:12:38;97554.63;;;15.35;100.00
70506;BME280;58032;49.820;6.274;2023-06-26T03:15:06;97555.50;;;15.42;100.00
70506;BME280;58032;49.820;6.274;2023-06-26T03:17:33;97559.47;;;15.29;100.00
70506;BME280;58032;49.820;6.274;2023-06-26T03:20:05;97561.91;;;15.22;100.00
70506;BME280;58032;49.820;6.274;2023-06-26T03:22:46;97556.91;;;15.31;100.00
70506;BME280;58032;49.820;6.274;2023-06-26T03:25:14;97558.63;;;15.44;100.00
70506;BME280;58032;49.820;6.274;2023-06-26T03:27:41;97554.88;;;15.52;100.00
70506;BME280;58032;49.820;6.274;2023-06-26T03:30:08;97556.53;;;15.59;100.00
70506;BME280;58032;49.820;6.274;2023-06-26T03:32:38;97561.78;;;15.66;100.00
70506;BME280;58032;49.820;6.274;2023-06-26T03:35:05;97558.81;;;15.76;100.00
70506;BME280;58032;49.820;6.274;2023-06-26T03:37:33;97557.72;;;15.88;100.00
70506;BME280;58032;49.820;6.274;2023-06-26T03:40:00;97566.22;;;15.88;100.00
70506;BME280;58032;49.820;6.274;2023-06-26T03:42:27;97566.22;;;15.88;100.00
70506;BME280;58032;49.820;6.274;2023-06-26T03:44:54;97569.41;;;16.17;100.00
70506;BME280;58032;49.820;6.274;2023-06-26T03:47:21;97564.28;;;16.41;100.00
70506;BME280;58032;49.820;6.274;2023-06-26T03:49:48;97563.38;;;16.82;100.00
70506;BME280;58032;49.820;6.274;2023-06-26T03:52:15;97566.16;;;16.97;100.00
70506;BME280;58032;49.820;6.274;2023-06-26T03:54:42;97566.72;;;17.07;100.00
70506;BME280;58032;49.820;6.274;2023-06-26T03:57:10;97576.09;;;17.13;100.00
70506;BME280;58032;49.820;6.274;2023-06-26T03:59:37;97564.06;;;17.30;100.00
70506;BME280;58032;49.820;6.274;2023-06-26T04:02:04;97574.69;;;17.35;100.00
70506;BME280;58032;49.820;6.274;2023-06-26T04:04:31;97568.81;;;17.44;100.00
70506;BME280;58032;49.820;6.274;2023-06-26T04:06:58;97572.66;;;17.41;100.00
70506;BME280;58032;49.820;6.274;2023-06-26T04:09:26;97574.56;;;17.50;100.00
70506;BME280;58032;49.820;6.274;2023-06-26T04:11:53;97572.25;;;17.54;100.00
70506;BME280;58032;49.820;6.274;2023-06-26T04:14:20;97572.56;;;17.67;100.00
70506;BME280;58032;49.820;6.274;2023-06-26T04:16:47;97564.88;;;17.74;100.00
70506;BME280;58032;49.820;6.274;2023-06-26T04:19:13;97577.78;;;17.69;100.00
70506;BME280;58032;49.820;6.274;2023-06-26T04:21:41;97589.66;;;17.67;100.00
70506;BME280;58032;49.820;6.274;2023-06-26T04:24:08;97584.03;;;17.79;100.00
70506;BME280;58032;49.820;6.274;2023-06-26T04:26:35;97593.78;;;18.04;100.00
70506;BME280;58032;49.820;6.274;2023-06-26T04:29:02;97593.06;;;18.21;100.00
70506;BME280;58032;49.820;6.274;2023-06-26T04:31:30;97590.53;;;18.34;100.00
70506;BME280;58032;49.820;6.274;2023-06-26T04:33:56;97592.09;;;18.35;100.00
70506;BME280;58032;49.820;6.274;2023-06-26T04:36:24;97601.16;;;18.39;100.00
70506;BME280;58032;49.820;6.274;2023-06-26T04:38:55;97594.28;;;18.80;100.00
70506;BME280;58032;49.820;6.274;2023-06-26T04:41:22;97599.22;;;19.82;100.00
70506;BME280;58032;49.820;6.274;2023-06-26T04:43:49;97599.38;;;20.23;100.00
70506;BME280;58032;49.820;6.274;2023-06-26T04:46:16;97602.19;;;21.24;100.00
70506;BME280;58032;49.820;6.274;2023-06-26T04:48:43;97599.47;;;21.38;100.00
70506;BME280;58032;49.820;6.274;2023-06-26T04:51:11;97591.88;;;20.74;100.00
70506;BME280;58032;49.820;6.274;2023-06-26T04:53:38;97597.19;;;20.47;100.00
70506;BME280;58032;49.820;6.274;2023-06-26T04:56:05;97604.38;;;20.00;100.00
70506;BME280;58032;49.820;6.274;2023-06-26T04:58:32;97609.91;;;19.19;100.00
70506;BME280;58032;49.820;6.274;2023-06-26T05:00:59;97610.84;;;18.64;100.00
70506;BME280;58032;49.820;6.274;2023-06-26T05:03:25;97606.66;;;18.43;100.00
70506;BME280;58032;49.820;6.274;2023-06-26T05:05:52;97604.25;;;18.35;100.00
70506;BME280;58032;49.820;6.274;2023-06-26T05:08:24;97602.91;;;19.20;100.00
70506;BME280;58032;49.820;6.274;2023-06-26T05:10:52;97602.16;;;19.19;100.00
70506;BME280;58032;49.820;6.274;2023-06-26T05:13:25;97592.25;;;19.49;100.00
70506;BME280;58032;49.820;6.274;2023-06-26T05:15:52;97602.91;;;19.31;100.00
70506;BME280;58032;49.820;6.274;2023-06-26T05:18:19;97585.00;;;19.36;100.00
70506;BME280;58032;49.820;6.274;2023-06-26T05:20:47;97601.34;;;19.07;100.00
70506;BME280;58032;49.820;6.274;2023-06-26T05:23:15;97610.66;;;19.02;100.00
70506;BME280;58032;49.820;6.274;2023-06-26T05:25:43;97613.47;;;18.85;100.00
70506;BME280;58032;49.820;6.274;2023-06-26T05:28:11;97616.66;;;19.16;100.00
70506;BME280;58032;49.820;6.274;2023-06-26T05:30:39;97618.22;;;19.11;100.00
70506;BME280;58032;49.820;6.274;2023-06-26T05:33:06;97633.44;;;18.85;100.00
70506;BME280;58032;49.820;6.274;2023-06-26T05:35:36;97630.31;;;18.77;100.00
70506;BME280;58032;49.820;6.274;2023-06-26T05:38:03;97632.06;;;18.58;100.00
70506;BME280;58032;49.820;6.274;2023-06-26T05:40:30;97639.28;;;18.42;100.00
70506;BME280;58032;49.820;6.274;2023-06-26T05:42:58;97643.38;;;18.29;100.00
70506;BME280;58032;49.820;6.274;2023-06-26T05:45:24;97638.28;;;18.50;100.00
70506;BME280;58032;49.820;6.274;2023-06-26T05:47:51;97640.19;;;18.76;100.00
70506;BME280;58032;49.820;6.274;2023-06-26T05:50:19;97639.13;;;18.79;100.00
70506;BME280;58032;49.820;6.274;2023-06-26T05:52:46;97645.50;;;18.46;100.00
70506;BME280;58032;49.820;6.274;2023-06-26T05:55:14;97646.84;;;18.50;100.00
70506;BME280;58032;49.820;6.274;2023-06-26T05:57:41;97643.50;;;18.63;100.00
70506;BME280;58032;49.820;6.274;2023-06-26T06:00:08;97647.31;;;19.26;100.00
70506;BME280;58032;49.820;6.274;2023-06-26T06:02:41;97644.19;;;19.53;100.00
70506;BME280;58032;49.820;6.274;2023-06-26T06:05:09;97635.84;;;19.55;100.00
70506;BME280;58032;49.820;6.274;2023-06-26T06:07:36;97645.72;;;19.31;100.00
70506;BME280;58032;49.820;6.274;2023-06-26T06:10:03;97643.91;;;19.56;100.00
70506;BME280;58032;49.820;6.274;2023-06-26T06:12:31;97648.84;;;19.61;100.00
70506;BME280;58032;49.820;6.274;2023-06-26T06:15:00;97642.88;;;19.54;100.00
70506;BME280;58032;49.820;6.274;2023-06-26T06:17:27;97647.91;;;20.40;100.00
70506;BME280;58032;49.820;6.274;2023-06-26T06:19:55;97647.22;;;20.82;100.00
70506;BME280;58032;49.820;6.274;2023-06-26T06:22:21;97658.88;;;20.90;100.00
70506;BME280;58032;49.820;6.274;2023-06-26T06:24:50;97662.84;;;20.81;100.00
70506;BME280;58032;49.820;6.274;2023-06-26T06:27:17;97670.41;;;20.78;100.00
70506;BME280;58032;49.820;6.274;2023-06-26T06:29:44;97664.44;;;20.76;100.00
70506;BME280;58032;49.820;6.274;2023-06-26T06:32:11;97670.44;;;21.20;100.00
70506;BME280;58032;49.820;6.274;2023-06-26T06:34:38;97675.78;;;21.71;100.00
70506;BME280;58032;49.820;6.274;2023-06-26T06:37:05;97673.94;;;21.74;100.00
70506;BME280;58032;49.820;6.274;2023-06-26T06:39:32;97679.28;;;21.58;100.00
70506;BME280;58032;49.820;6.274;2023-06-26T06:41:59;97682.34;;;21.96;100.00
70506;BME280;58032;49.820;6.274;2023-06-26T06:44:26;97675.97;;;21.79;100.00
70506;BME280;58032;49.820;6.274;2023-06-26T06:46:53;97678.53;;;21.82;100.00
70506;BME280;58032;49.820;6.274;2023-06-26T06:49:20;97682.94;;;21.89;100.00
70506;BME280;58032;49.820;6.274;2023-06-26T06:51:46;97677.00;;;21.81;100.00
70506;BME280;58032;49.820;6.274;2023-06-26T06:54:16;97680.56;;;21.88;100.00
70506;BME280;58032;49.820;6.274;2023-06-26T06:56:43;97676.84;;;21.98;100.00
70506;BME280;58032;49.820;6.274;2023-06-26T06:59:10;97681.22;;;22.55;100.00
70506;BME280;58032;49.820;6.274;2023-06-26T07:01:37;97678.59;;;23.52;100.00
70506;BME280;58032;49.820;6.274;2023-06-26T07:04:04;97673.59;;;23.85;100.00
70506;BME280;58032;49.820;6.274;2023-06-26T07:06:30;97680.13;;;23.53;100.00
70506;BME280;58032;49.820;6.274;2023-06-26T07:08:57;97674.22;;;24.51;100.00
70506;BME280;58032;49.820;6.274;2023-06-26T07:11:24;97684.84;;;24.16;100.00
70506;BME280;58032;49.820;6.274;2023-06-26T07:13:51;97701.56;;;24.17;100.00
70506;BME280;58032;49.820;6.274;2023-06-26T07:16:18;97692.81;;;24.10;100.00
70506;BME280;58032;49.820;6.274;2023-06-26T07:18:45;97695.00;;;24.03;100.00
70506;BME280;58032;49.820;6.274;2023-06-26T07:21:12;97684.97;;;24.50;100.00
70506;BME280;58032;49.820;6.274;2023-06-26T07:23:40;97697.59;;;23.88;100.00
70506;BME280;58032;49.820;6.274;2023-06-26T07:26:07;97695.66;;;23.64;100.00
70506;BME280;58032;49.820;6.274;2023-06-26T07:28:33;97706.22;;;24.47;100.00
70506;BME280;58032;49.820;6.274;2023-06-26T07:31:00;97707.13;;;24.42;100.00
70506;BME280;58032;49.820;6.274;2023-06-26T07:33:27;97695.47;;;25.50;100.00
70506;BME280;58032;49.820;6.274;2023-06-26T07:35:55;97705.75;;;25.80;100.00
70506;BME280;58032;49.820;6.274;2023-06-26T07:38:23;97700.41;;;25.15;100.00
70506;BME280;58032;49.820;6.274;2023-06-26T07:40:50;97695.16;;;25.61;100.00
70506;BME280;58032;49.820;6.274;2023-06-26T07:43:17;97701.03;;;25.34;99.97
70506;BME280;58032;49.820;6.274;2023-06-26T07:45:44;97696.41;;;26.08;100.00
70506;BME280;58032;49.820;6.274;2023-06-26T07:48:11;97697.94;;;25.67;98.38
70506;BME280;58032;49.820;6.274;2023-06-26T07:50:37;97706.31;;;24.95;98.72
70506;BME280;58032;49.820;6.274;2023-06-26T07:53:04;97705.91;;;25.39;100.00
70506;BME280;58032;49.820;6.274;2023-06-26T07:55:32;97710.56;;;25.42;99.47
70506;BME280;58032;49.820;6.274;2023-06-26T07:57:59;97715.38;;;25.13;100.00
70506;BME280;58032;49.820;6.274;2023-06-26T08:00:28;97724.16;;;24.94;100.00
70506;BME280;58032;49.820;6.274;2023-06-26T08:02:55;97723.03;;;25.10;100.00
70506;BME280;58032;49.820;6.274;2023-06-26T08:05:22;97719.78;;;25.27;100.00
70506;BME280;58032;49.820;6.274;2023-06-26T08:07:49;97724.81;;;25.00;100.00
70506;BME280;58032;49.820;6.274;2023-06-26T08:10:16;97729.78;;;25.13;100.00
70506;BME280;58032;49.820;6.274;2023-06-26T08:12:43;97730.91;;;25.79;100.00
70506;BME280;58032;49.820;6.274;2023-06-26T08:15:11;97725.66;;;26.33;100.00
70506;BME280;58032;49.820;6.274;2023-06-26T08:17:39;97731.75;;;26.80;100.00
70506;BME280;58032;49.820;6.274;2023-06-26T08:20:06;97732.78;;;26.11;100.00
70506;BME280;58032;49.820;6.274;2023-06-26T08:22:34;97741.22;;;24.92;100.00
70506;BME280;58032;49.820;6.274;2023-06-26T08:25:02;97740.25;;;24.03;100.00
70506;BME280;58032;49.820;6.274;2023-06-26T08:27:29;97745.69;;;25.41;100.00
70506;BME280;58032;49.820;6.274;2023-06-26T08:29:56;97738.31;;;25.88;100.00
70506;BME280;58032;49.820;6.274;2023-06-26T08:32:23;97744.50;;;25.71;100.00
70506;BME280;58032;49.820;6.274;2023-06-26T08:34:50;97750.47;;;25.38;100.00
70506;BME280;58032;49.820;6.274;2023-06-26T08:37:17;97750.75;;;25.62;100.00
70506;BME280;58032;49.820;6.274;2023-06-26T08:39:44;97740.19;;;26.49;100.00
70506;BME280;58032;49.820;6.274;2023-06-26T08:42:11;97756.22;;;26.07;100.00
70506;BME280;58032;49.820;6.274;2023-06-26T08:44:38;97751.19;;;26.29;100.00
70506;BME280;58032;49.820;6.274;2023-06-26T08:47:11;97749.28;;;25.89;100.00
70506;BME280;58032;49.820;6.274;2023-06-26T08:50:04;97752.44;;;26.63;100.00
70506;BME280;58032;49.820;6.274;2023-06-26T08:52:36;97754.56;;;27.36;99.71
70506;BME280;58032;49.820;6.274;2023-06-26T08:55:09;97758.34;;;26.57;100.00
70506;BME280;58032;49.820;6.274;2023-06-26T08:57:37;97764.16;;;24.97;100.00
70506;BME280;58032;49.820;6.274;2023-06-26T09:00:05;97766.53;;;25.82;100.00
70506;BME280;58032;49.820;6.274;2023-06-26T09:02:36;97764.16;;;27.23;89.09
70506;BME280;58032;49.820;6.274;2023-06-26T09:05:03;97770.25;;;28.31;79.91
70506;BME280;58032;49.820;6.274;2023-06-26T09:07:30;97758.97;;;27.81;77.67
70506;BME280;58032;49.820;6.274;2023-06-26T09:09:57;97764.97;;;26.65;79.58
70506;BME280;58032;49.820;6.274;2023-06-26T09:12:27;97754.88;;;26.09;81.34
70506;BME280;58032;49.820;6.274;2023-06-26T09:14:55;97752.81;;;25.40;83.99
70506;BME280;58032;49.820;6.274;2023-06-26T09:17:29;97752.38;;;26.34;80.89
70506;BME280;58032;49.820;6.274;2023-06-26T09:19:56;97753.09;;;26.77;76.12
70506;BME280;58032;49.820;6.274;2023-06-26T09:22:23;97742.72;;;26.52;76.70
70506;BME280;58032;49.820;6.274;2023-06-26T09:24:51;97748.09;;;27.58;80.07
70506;BME280;58032;49.820;6.274;2023-06-26T09:27:18;97743.84;;;27.59;70.79
70506;BME280;58032;49.820;6.274;2023-06-26T09:29:45;97750.72;;;27.41;73.27
70506;BME280;58032;49.820;6.274;2023-06-26T09:32:13;97744.53;;;26.63;76.96
70506;BME280;58032;49.820;6.274;2023-06-26T09:34:42;97747.13;;;26.03;82.62
70506;BME280;58032;49.820;6.274;2023-06-26T09:37:13;97760.41;;;24.89;92.40
70506;BME280;58032;49.820;6.274;2023-06-26T09:39:40;97753.28;;;25.04;96.11
70506;BME280;58032;49.820;6.274;2023-06-26T09:42:07;97766.03;;;25.08;94.50
70506;BME280;58032;49.820;6.274;2023-06-26T09:44:34;97767.56;;;24.42;89.98
70506;BME280;58032;49.820;6.274;2023-06-26T09:47:02;97779.25;;;23.66;92.01
70506;BME280;58032;49.820;6.274;2023-06-26T09:49:30;97782.31;;;23.87;86.70
70506;BME280;58032;49.820;6.274;2023-06-26T09:52:00;97779.63;;;23.57;72.83
70506;BME280;58032;49.820;6.274;2023-06-26T09:54:28;97774.56;;;24.14;79.47
70506;BME280;58032;49.820;6.274;2023-06-26T09:57:09;97774.16;;;24.24;87.02
70506;BME280;58032;49.820;6.274;2023-06-26T09:59:37;97780.97;;;23.88;85.71
70506;BME280;58032;49.820;6.274;2023-06-26T10:02:04;97770.19;;;24.27;86.03
70506;BME280;58032;49.820;6.274;2023-06-26T10:04:34;97773.97;;;24.48;81.17
70506;BME280;58032;49.820;6.274;2023-06-26T10:07:12;97772.84;;;24.38;79.44
70506;BME280;58032;49.820;6.274;2023-06-26T10:09:49;97777.09;;;24.50;73.45
70506;BME280;58032;49.820;6.274;2023-06-26T10:14:53;97776.59;;;24.20;69.65
70506;BME280;58032;49.820;6.274;2023-06-26T10:17:26;97783.75;;;24.13;72.61
70506;BME280;58032;49.820;6.274;2023-06-26T10:19:58;97782.31;;;23.68;73.17
70506;BME280;58032;49.820;6.274;2023-06-26T10:22:37;97800.78;;;24.11;72.76
70506;BME280;58032;49.820;6.274;2023-06-26T10:25:12;97802.06;;;23.39;71.83
70506;BME280;58032;49.820;6.274;2023-06-26T10:27:44;97806.16;;;24.01;84.93
70506;BME280;58032;49.820;6.274;2023-06-26T10:30:15;97795.19;;;24.32;74.06
70506;BME280;58032;49.820;6.274;2023-06-26T10:32:45;97797.19;;;24.83;79.07
70506;BME280;58032;49.820;6.274;2023-06-26T10:35:12;97807.06;;;24.42;74.75
70506;BME280;58032;49.820;6.274;2023-06-26T10:37:47;97798.41;;;24.74;75.49
70506;BME280;58032;49.820;6.274;2023-06-26T10:40:22;97809.84;;;24.61;61.88
70506;BME280;58032;49.820;6.274;2023-06-26T10:42:49;97804.06;;;24.34;61.27
70506;BME280;58032;49.820;6.274;2023-06-26T10:45:19;97812.25;;;24.76;58.55
70506;BME280;58032;49.820;6.274;2023-06-26T10:47:48;97812.13;;;24.36;53.49
70506;BME280;58032;49.820;6.274;2023-06-26T10:50:29;97809.53;;;24.64;57.04
70506;BME280;58032;49.820;6.274;2023-06-26T10:56:03;97817.66;;;25.33;52.74
70506;BME280;58032;49.820;6.274;2023-06-26T11:03:45;97805.25;;;25.38;50.29
70506;BME280;58032;49.820;6.274;2023-06-26T11:06:14;97827.97;;;25.42;51.96
70506;BME280;58032;49.820;6.274;2023-06-26T11:14:21;97813.03;;;25.99;47.81
70506;BME280;58032;49.820;6.274;2023-06-26T11:16:49;97820.41;;;26.43;49.67
70506;BME280;58032;49.820;6.274;2023-06-26T11:19:19;97829.41;;;25.08;46.42
70506;BME280;58032;49.820;6.274;2023-06-26T11:21:47;97827.97;;;25.28;49.68
70506;BME280;58032;49.820;6.274;2023-06-26T11:24:14;97823.53;;;25.54;47.28
70506;BME280;58032;49.820;6.274;2023-06-26T11:26:42;97820.91;;;26.33;46.10
70506;BME280;58032;49.820;6.274;2023-06-26T11:29:10;97832.25;;;25.62;43.47
70506;BME280;58032;49.820;6.274;2023-06-26T11:31:39;97833.22;;;25.99;46.38
70506;BME280;58032;49.820;6.274;2023-06-26T11:34:12;97845.03;;;25.53;45.48
70506;BME280;58032;49.820;6.274;2023-06-26T11:36:41;97837.38;;;25.56;46.40
70506;BME280;58032;49.820;6.274;2023-06-26T11:39:09;97858.44;;;24.97;42.95
70506;BME280;58032;49.820;6.274;2023-06-26T11:41:37;97846.69;;;25.08;43.30
70506;BME280;58032;49.820;6.274;2023-06-26T11:44:09;97850.19;;;25.68;46.08
70506;BME280;58032;49.820;6.274;2023-06-26T11:46:37;97843.78;;;25.97;43.97
70506;BME280;58032;49.820;6.274;2023-06-26T11:49:08;97845.88;;;26.10;44.85
70506;BME280;58032;49.820;6.274;2023-06-26T11:51:35;97852.25;;;27.00;42.84
70506;BME280;58032;49.820;6.274;2023-06-26T11:54:05;97846.16;;;26.83;41.04
70506;BME280;58032;49.820;6.274;2023-06-26T11:56:32;97853.69;;;26.86;39.91
70506;BME280;58032;49.820;6.274;2023-06-26T11:59:01;97858.56;;;25.93;41.80
70506;BME280;58032;49.820;6.274;2023-06-26T12:01:32;97861.31;;;25.99;43.64
70506;BME280;58032;49.820;6.274;2023-06-26T12:04:02;97867.41;;;25.60;41.00
70506;BME280;58032;49.820;6.274;2023-06-26T12:06:38;97845.16;;;27.38;41.88
70506;BME280;58032;49.820;6.274;2023-06-26T12:09:09;97853.00;;;27.67;38.89
70506;BME280;58032;49.820;6.274;2023-06-26T12:11:42;97848.22;;;27.32;39.91
70506;BME280;58032;49.820;6.274;2023-06-26T12:14:10;97857.03;;;26.48;40.18
70506;BME280;58032;49.820;6.274;2023-06-26T12:16:37;97862.41;;;27.52;39.24
70506;BME280;58032;49.820;6.274;2023-06-26T12:19:07;97852.25;;;27.00;38.29
70506;BME280;58032;49.820;6.274;2023-06-26T12:24:05;97850.69;;;26.49;41.39
70506;BME280;58032;49.820;6.274;2023-06-26T12:26:32;97853.47;;;27.13;42.19
70506;BME280;58032;49.820;6.274;2023-06-26T12:29:09;97848.16;;;28.06;41.93
70506;BME280;58032;49.820;6.274;2023-06-26T12:31:45;97860.63;;;26.06;39.36
70506;BME280;58032;49.820;6.274;2023-06-26T12:34:14;97855.72;;;25.80;42.10
70506;BME280;58032;49.820;6.274;2023-06-26T12:36:45;97864.31;;;25.58;41.83
70506;BME280;58032;49.820;6.274;2023-06-26T12:39:14;97869.91;;;25.78;41.22
70506;BME280;58032;49.820;6.274;2023-06-26T12:41:56;97864.06;;;27.39;40.03
70506;BME280;58032;49.820;6.274;2023-06-26T12:44:28;97874.25;;;28.14;39.79
70506;BME280;58032;49.820;6.274;2023-06-26T12:47:02;97874.50;;;26.84;38.65
70506;BME280;58032;49.820;6.274;2023-06-26T12:49:36;97875.53;;;26.74;39.41
70506;BME280;58032;49.820;6.274;2023-06-26T12:52:05;97873.91;;;27.73;38.33
70506;BME280;58032;49.820;6.274;2023-06-26T12:54:33;97871.63;;;27.42;38.83
70506;BME280;58032;49.820;6.274;2023-06-26T12:57:00;97869.03;;;27.68;38.85
70506;BME280;58032;49.820;6.274;2023-06-26T12:59:27;97863.28;;;29.13;38.01
70506;BME280;58032;49.820;6.274;2023-06-26T13:01:54;97860.97;;;28.49;36.91
70506;BME280;58032;49.820;6.274;2023-06-26T13:04:21;97869.63;;;27.66;37.42
70506;BME280;58032;49.820;6.274;2023-06-26T13:06:48;97872.16;;;26.83;41.45
70506;BME280;58032;49.820;6.274;2023-06-26T13:09:15;97866.69;;;27.29;41.44
70506;BME280;58032;49.820;6.274;2023-06-26T13:11:42;97856.16;;;25.84;41.62
70506;BME280;58032;49.820;6.274;2023-06-26T13:14:09;97868.56;;;26.27;42.57
70506;BME280;58032;49.820;6.274;2023-06-26T13:16:37;97867.38;;;24.67;44.24
70506;BME280;58032;49.820;6.274;2023-06-26T13:19:04;97866.16;;;24.75;42.15
70506;BME280;58032;49.820;6.274;2023-06-26T13:21:31;97874.31;;;25.17;41.13
70506;BME280;58032;49.820;6.274;2023-06-26T13:23:58;97873.97;;;25.48;42.97